CheckWX is a tool to help pilots better visualize weather data.  It is not intended as a substitute for an official pre-flight weather briefing.

06:06:36 UTC

LBSF TAF
Sofia Airport
Sofia, Bulgaria
TAF LBSF 240500Z 2406/2506 10012KT 9999 SCT050 BECMG 2421/2423 VRB04KT TEMPO 2502/2505 5000 BR

Apr-24@
06:00 UTC

Apr-24 @ 06:00 UTC

Apr-24@
21:00 UTC

Apr-24 @ 21:00 UTC

TAF LBSF 240500Z 2406/2506 10012KT 9999 SCT050
Wind
  • 100° at 12 KTS
Cloud Levels
  • Scattered at 5,000' AGL

Apr-24@
21:00 UTC

Apr-24 @ 21:00 UTC

Apr-25@
06:00 UTC

Apr-25 @ 06:00 UTC

BECMG 2421/2423 VRB04KT

Becoming

Becoming Conditions expected by Wed, Apr 24, 2019 @ 23:00 UTC

Wind
  • Variable at 4 KTS
Cloud Levels
  • Scattered at 5,000' AGL

Apr-25@
02:00 UTC

Apr-25 @ 02:00 UTC

Apr-25@
05:00 UTC

Apr-25 @ 05:00 UTC

TEMPO 2502/2505 5000 BR

Temporary

Temporary Changes expected for less than half the time period

Conditions
Mist